sensor_id;sensor_type;location;lat;lon;timestamp;P1;durP1;ratioP1;P2;durP2;ratioP2
1701;SDS011;848;48.354;10.064;2022-09-09T00:00:26;7.50;;;2.05;;
1701;SDS011;848;48.354;10.064;2022-09-09T00:02:57;4.13;;;1.80;;
1701;SDS011;848;48.354;10.064;2022-09-09T00:05:29;2.97;;;1.52;;
1701;SDS011;848;48.354;10.064;2022-09-09T00:08:03;4.53;;;1.75;;
1701;SDS011;848;48.354;10.064;2022-09-09T00:10:32;2.70;;;1.73;;
1701;SDS011;848;48.354;10.064;2022-09-09T00:13:04;2.75;;;1.75;;
1701;SDS011;848;48.354;10.064;2022-09-09T00:15:42;4.47;;;1.65;;
1701;SDS011;848;48.354;10.064;2022-09-09T00:18:21;5.75;;;1.88;;
1701;SDS011;848;48.354;10.064;2022-09-09T00:20:55;2.85;;;1.38;;
1701;SDS011;848;48.354;10.064;2022-09-09T00:23:33;2.55;;;1.65;;
1701;SDS011;848;48.354;10.064;2022-09-09T00:26:04;2.10;;;1.50;;
1701;SDS011;848;48.354;10.064;2022-09-09T00:28:36;4.13;;;1.85;;
1701;SDS011;848;48.354;10.064;2022-09-09T00:31:10;4.18;;;1.77;;
1701;SDS011;848;48.354;10.064;2022-09-09T00:33:39;5.22;;;1.88;;
1701;SDS011;848;48.354;10.064;2022-09-09T00:36:09;4.18;;;1.90;;
1701;SDS011;848;48.354;10.064;2022-09-09T00:38:42;2.72;;;1.63;;
1701;SDS011;848;48.354;10.064;2022-09-09T00:41:14;4.15;;;1.92;;
1701;SDS011;848;48.354;10.064;2022-09-09T00:43:49;3.85;;;2.10;;
1701;SDS011;848;48.354;10.064;2022-09-09T00:46:33;5.65;;;2.10;;
1701;SDS011;848;48.354;10.064;2022-09-09T00:49:22;4.97;;;2.30;;
1701;SDS011;848;48.354;10.064;2022-09-09T00:52:00;5.43;;;1.90;;
1701;SDS011;848;48.354;10.064;2022-09-09T00:54:44;5.05;;;1.83;;
1701;SDS011;848;48.354;10.064;2022-09-09T00:57:22;4.75;;;2.20;;
1701;SDS011;848;48.354;10.064;2022-09-09T00:59:56;4.35;;;1.90;;
1701;SDS011;848;48.354;10.064;2022-09-09T01:02:29;4.40;;;3.47;;
1701;SDS011;848;48.354;10.064;2022-09-09T01:05:04;4.95;;;2.22;;
1701;SDS011;848;48.354;10.064;2022-09-09T01:07:41;6.72;;;2.50;;
1701;SDS011;848;48.354;10.064;2022-09-09T01:10:17;3.78;;;2.45;;
1701;SDS011;848;48.354;10.064;2022-09-09T01:12:55;4.00;;;2.40;;
1701;SDS011;848;48.354;10.064;2022-09-09T01:15:26;4.18;;;2.30;;
1701;SDS011;848;48.354;10.064;2022-09-09T01:17:58;5.70;;;2.80;;
1701;SDS011;848;48.354;10.064;2022-09-09T01:20:29;4.47;;;2.40;;
1701;SDS011;848;48.354;10.064;2022-09-09T01:28:43;4.40;;;1.95;;
1701;SDS011;848;48.354;10.064;2022-09-09T01:31:11;5.85;;;2.63;;
1701;SDS011;848;48.354;10.064;2022-09-09T01:33:46;3.00;;;2.22;;
1701;SDS011;848;48.354;10.064;2022-09-09T01:36:14;5.25;;;2.25;;
1701;SDS011;848;48.354;10.064;2022-09-09T01:38:50;8.60;;;3.13;;
1701;SDS011;848;48.354;10.064;2022-09-09T01:41:19;3.05;;;2.28;;
1701;SDS011;848;48.354;10.064;2022-09-09T01:43:46;11.80;;;2.50;;
1701;SDS011;848;48.354;10.064;2022-09-09T01:46:14;4.68;;;2.72;;
1701;SDS011;848;48.354;10.064;2022-09-09T01:48:42;3.70;;;2.20;;
1701;SDS011;848;48.354;10.064;2022-09-09T01:51:09;4.03;;;2.22;;
1701;SDS011;848;48.354;10.064;2022-09-09T01:53:36;4.40;;;2.42;;
1701;SDS011;848;48.354;10.064;2022-09-09T01:56:07;6.28;;;2.70;;
1701;SDS011;848;48.354;10.064;2022-09-09T01:58:45;3.03;;;2.03;;
1701;SDS011;848;48.354;10.064;2022-09-09T02:01:24;5.60;;;2.50;;
1701;SDS011;848;48.354;10.064;2022-09-09T02:04:01;3.85;;;2.20;;
1701;SDS011;848;48.354;10.064;2022-09-09T02:06:35;4.00;;;2.78;;
1701;SDS011;848;48.354;10.064;2022-09-09T02:09:04;3.38;;;2.53;;
1701;SDS011;848;48.354;10.064;2022-09-09T02:11:37;5.05;;;2.10;;
1701;SDS011;848;48.354;10.064;2022-09-09T02:14:07;3.72;;;2.20;;
1701;SDS011;848;48.354;10.064;2022-09-09T02:16:39;5.25;;;2.15;;
1701;SDS011;848;48.354;10.064;2022-09-09T02:19:09;5.88;;;2.55;;
1701;SDS011;848;48.354;10.064;2022-09-09T02:21:42;3.60;;;2.10;;
1701;SDS011;848;48.354;10.064;2022-09-09T02:24:13;3.65;;;2.00;;
1701;SDS011;848;48.354;10.064;2022-09-09T02:26:42;5.55;;;2.35;;
1701;SDS011;848;48.354;10.064;2022-09-09T02:29:13;2.83;;;2.00;;
1701;SDS011;848;48.354;10.064;2022-09-09T02:31:44;4.38;;;2.28;;
1701;SDS011;848;48.354;10.064;2022-09-09T02:34:13;3.63;;;2.00;;
1701;SDS011;848;48.354;10.064;2022-09-09T02:36:43;5.55;;;2.53;;
1701;SDS011;848;48.354;10.064;2022-09-09T02:39:14;4.50;;;2.20;;
1701;SDS011;848;48.354;10.064;2022-09-09T02:41:41;3.45;;;1.92;;
1701;SDS011;848;48.354;10.064;2022-09-09T02:44:09;3.60;;;1.88;;
1701;SDS011;848;48.354;10.064;2022-09-09T02:46:43;5.55;;;2.20;;
1701;SDS011;848;48.354;10.064;2022-09-09T02:49:25;3.83;;;3.40;;
1701;SDS011;848;48.354;10.064;2022-09-09T02:51:59;6.72;;;2.30;;
1701;SDS011;848;48.354;10.064;2022-09-09T02:54:31;4.90;;;1.90;;
1701;SDS011;848;48.354;10.064;2022-09-09T02:57:02;4.63;;;2.53;;
1701;SDS011;848;48.354;10.064;2022-09-09T02:59:34;4.32;;;2.13;;
1701;SDS011;848;48.354;10.064;2022-09-09T03:02:02;6.38;;;2.05;;
1701;SDS011;848;48.354;10.064;2022-09-09T03:04:29;6.53;;;2.10;;
1701;SDS011;848;48.354;10.064;2022-09-09T03:06:56;3.45;;;1.90;;
1701;SDS011;848;48.354;10.064;2022-09-09T03:09:23;5.53;;;2.90;;
1701;SDS011;848;48.354;10.064;2022-09-09T03:11:51;2.78;;;2.17;;
1701;SDS011;848;48.354;10.064;2022-09-09T03:14:20;3.20;;;2.15;;
1701;SDS011;848;48.354;10.064;2022-09-09T03:16:51;4.35;;;2.25;;
1701;SDS011;848;48.354;10.064;2022-09-09T03:19:18;3.88;;;1.90;;
1701;SDS011;848;48.354;10.064;2022-09-09T03:21:44;3.88;;;1.95;;
1701;SDS011;848;48.354;10.064;2022-09-09T03:24:12;5.38;;;3.90;;
1701;SDS011;848;48.354;10.064;2022-09-09T03:26:39;5.38;;;1.83;;
1701;SDS011;848;48.354;10.064;2022-09-09T03:29:06;5.90;;;2.53;;
1701;SDS011;848;48.354;10.064;2022-09-09T03:31:33;2.95;;;2.15;;
1701;SDS011;848;48.354;10.064;2022-09-09T03:34:02;4.40;;;2.55;;
1701;SDS011;848;48.354;10.064;2022-09-09T03:36:29;2.70;;;2.20;;
1701;SDS011;848;48.354;10.064;2022-09-09T03:38:56;4.43;;;2.50;;
1701;SDS011;848;48.354;10.064;2022-09-09T03:41:24;4.43;;;2.33;;
1701;SDS011;848;48.354;10.064;2022-09-09T03:43:52;4.40;;;2.33;;
1701;SDS011;848;48.354;10.064;2022-09-09T03:46:20;3.65;;;2.05;;
1701;SDS011;848;48.354;10.064;2022-09-09T03:48:48;3.67;;;2.40;;
1701;SDS011;848;48.354;10.064;2022-09-09T03:51:17;3.90;;;2.60;;
1701;SDS011;848;48.354;10.064;2022-09-09T03:53:44;9.43;;;2.78;;
1701;SDS011;848;48.354;10.064;2022-09-09T03:56:11;3.90;;;2.53;;
1701;SDS011;848;48.354;10.064;2022-09-09T03:58:38;3.60;;;2.85;;
1701;SDS011;848;48.354;10.064;2022-09-09T04:01:06;4.53;;;3.30;;
1701;SDS011;848;48.354;10.064;2022-09-09T04:03:34;7.00;;;2.50;;
1701;SDS011;848;48.354;10.064;2022-09-09T04:06:02;4.43;;;2.60;;
1701;SDS011;848;48.354;10.064;2022-09-09T04:08:32;3.80;;;2.10;;
1701;SDS011;848;48.354;10.064;2022-09-09T04:11:00;3.97;;;2.53;;
1701;SDS011;848;48.354;10.064;2022-09-09T04:13:31;3.22;;;2.45;;
1701;SDS011;848;48.354;10.064;2022-09-09T04:15:59;4.68;;;2.60;;
1701;SDS011;848;48.354;10.064;2022-09-09T04:18:28;6.03;;;2.50;;
1701;SDS011;848;48.354;10.064;2022-09-09T04:20:56;8.57;;;3.20;;
1701;SDS011;848;48.354;10.064;2022-09-09T04:23:23;4.70;;;2.85;;
1701;SDS011;848;48.354;10.064;2022-09-09T04:25:52;5.30;;;2.55;;
1701;SDS011;848;48.354;10.064;2022-09-09T04:28:21;5.47;;;3.00;;
1701;SDS011;848;48.354;10.064;2022-09-09T04:30:50;4.28;;;2.95;;
1701;SDS011;848;48.354;10.064;2022-09-09T04:35:30;4.07;;;3.00;;
1701;SDS011;848;48.354;10.064;2022-09-09T04:37:57;6.85;;;2.95;;
1701;SDS011;848;48.354;10.064;2022-09-09T04:40:23;4.03;;;2.70;;
1701;SDS011;848;48.354;10.064;2022-09-09T04:42:51;5.38;;;3.60;;
1701;SDS011;848;48.354;10.064;2022-09-09T04:45:17;4.55;;;3.60;;
1701;SDS011;848;48.354;10.064;2022-09-09T04:47:44;4.68;;;3.20;;
1701;SDS011;848;48.354;10.064;2022-09-09T04:50:11;4.60;;;3.50;;
1701;SDS011;848;48.354;10.064;2022-09-09T04:52:39;4.38;;;3.00;;
1701;SDS011;848;48.354;10.064;2022-09-09T04:55:07;5.20;;;2.67;;
1701;SDS011;848;48.354;10.064;2022-09-09T04:57:34;6.85;;;3.08;;
1701;SDS011;848;48.354;10.064;2022-09-09T05:00:02;5.18;;;2.92;;
1701;SDS011;848;48.354;10.064;2022-09-09T05:02:30;3.15;;;2.85;;
1701;SDS011;848;48.354;10.064;2022-09-09T05:04:57;4.50;;;2.95;;
1701;SDS011;848;48.354;10.064;2022-09-09T05:07:26;5.90;;;2.63;;
1701;SDS011;848;48.354;10.064;2022-09-09T05:09:55;7.10;;;3.63;;
1701;SDS011;848;48.354;10.064;2022-09-09T05:12:22;4.43;;;2.85;;
1701;SDS011;848;48.354;10.064;2022-09-09T05:14:50;4.40;;;2.28;;
1701;SDS011;848;48.354;10.064;2022-09-09T05:17:17;4.70;;;2.95;;
1701;SDS011;848;48.354;10.064;2022-09-09T05:19:44;7.05;;;3.00;;
1701;SDS011;848;48.354;10.064;2022-09-09T05:22:17;4.05;;;2.78;;
1701;SDS011;848;48.354;10.064;2022-09-09T05:24:45;3.92;;;2.55;;
1701;SDS011;848;48.354;10.064;2022-09-09T05:27:13;6.60;;;3.17;;
1701;SDS011;848;48.354;10.064;2022-09-09T05:29:40;7.00;;;2.50;;
1701;SDS011;848;48.354;10.064;2022-09-09T05:32:09;9.82;;;3.42;;
1701;SDS011;848;48.354;10.064;2022-09-09T05:34:36;4.80;;;2.90;;
1701;SDS011;848;48.354;10.064;2022-09-09T05:37:04;7.55;;;2.90;;
1701;SDS011;848;48.354;10.064;2022-09-09T05:39:31;4.50;;;2.60;;
1701;SDS011;848;48.354;10.064;2022-09-09T05:41:59;6.78;;;2.40;;
1701;SDS011;848;48.354;10.064;2022-09-09T05:44:27;3.75;;;2.30;;
1701;SDS011;848;48.354;10.064;2022-09-09T05:46:54;7.30;;;3.42;;
1701;SDS011;848;48.354;10.064;2022-09-09T05:49:22;4.22;;;3.10;;
1701;SDS011;848;48.354;10.064;2022-09-09T05:51:49;4.18;;;2.63;;
1701;SDS011;848;48.354;10.064;2022-09-09T05:54:16;4.25;;;2.90;;
1701;SDS011;848;48.354;10.064;2022-09-09T05:56:43;5.15;;;2.63;;
1701;SDS011;848;48.354;10.064;2022-09-09T05:59:10;3.70;;;2.53;;
1701;SDS011;848;48.354;10.064;2022-09-09T06:01:39;6.22;;;2.75;;
1701;SDS011;848;48.354;10.064;2022-09-09T06:04:06;8.25;;;2.83;;
1701;SDS011;848;48.354;10.064;2022-09-09T06:06:34;3.88;;;2.42;;
1701;SDS011;848;48.354;10.064;2022-09-09T06:09:04;7.07;;;3.10;;
1701;SDS011;848;48.354;10.064;2022-09-09T06:11:35;4.88;;;2.90;;
1701;SDS011;848;48.354;10.064;2022-09-09T06:14:03;3.80;;;2.88;;
1701;SDS011;848;48.354;10.064;2022-09-09T06:16:30;4.45;;;2.20;;
1701;SDS011;848;48.354;10.064;2022-09-09T06:19:01;4.47;;;2.45;;
1701;SDS011;848;48.354;10.064;2022-09-09T06:21:29;3.97;;;2.90;;
1701;SDS011;848;48.354;10.064;2022-09-09T06:23:58;5.32;;;2.70;;
1701;SDS011;848;48.354;10.064;2022-09-09T06:26:26;4.43;;;2.58;;
1701;SDS011;848;48.354;10.064;2022-09-09T06:28:54;4.88;;;2.45;;
1701;SDS011;848;48.354;10.064;2022-09-09T06:31:23;3.97;;;2.50;;
1701;SDS011;848;48.354;10.064;2022-09-09T06:33:52;3.95;;;2.55;;
1701;SDS011;848;48.354;10.064;2022-09-09T06:36:22;5.20;;;3.10;;
1701;SDS011;848;48.354;10.064;2022-09-09T06:38:50;3.72;;;2.55;;
1701;SDS011;848;48.354;10.064;2022-09-09T06:41:18;5.45;;;3.03;;
1701;SDS011;848;48.354;10.064;2022-09-09T06:43:46;4.78;;;3.35;;
1701;SDS011;848;48.354;10.064;2022-09-09T06:46:13;4.28;;;2.75;;
1701;SDS011;848;48.354;10.064;2022-09-09T06:48:41;4.13;;;2.75;;
1701;SDS011;848;48.354;10.064;2022-09-09T06:51:10;3.55;;;2.72;;
1701;SDS011;848;48.354;10.064;2022-09-09T06:53:40;3.38;;;2.60;;
1701;SDS011;848;48.354;10.064;2022-09-09T06:58:54;5.45;;;2.97;;
1701;SDS011;848;48.354;10.064;2022-09-09T07:01:23;5.85;;;2.70;;
1701;SDS011;848;48.354;10.064;2022-09-09T07:03:52;5.05;;;2.95;;
1701;SDS011;848;48.354;10.064;2022-09-09T07:06:21;4.07;;;2.50;;
1701;SDS011;848;48.354;10.064;2022-09-09T07:08:51;5.57;;;2.90;;
1701;SDS011;848;48.354;10.064;2022-09-09T07:11:20;5.10;;;2.75;;
1701;SDS011;848;48.354;10.064;2022-09-09T07:13:48;4.07;;;2.53;;
1701;SDS011;848;48.354;10.064;2022-09-09T07:16:16;4.97;;;2.90;;
1701;SDS011;848;48.354;10.064;2022-09-09T07:18:45;4.00;;;2.70;;
1701;SDS011;848;48.354;10.064;2022-09-09T07:21:13;6.55;;;2.78;;
1701;SDS011;848;48.354;10.064;2022-09-09T07:23:41;4.97;;;3.22;;
1701;SDS011;848;48.354;10.064;2022-09-09T07:26:10;4.03;;;2.92;;
1701;SDS011;848;48.354;10.064;2022-09-09T07:28:38;8.88;;;3.70;;
1701;SDS011;848;48.354;10.064;2022-09-09T07:31:05;6.55;;;3.30;;
1701;SDS011;848;48.354;10.064;2022-09-09T07:33:33;4.70;;;2.80;;
1701;SDS011;848;48.354;10.064;2022-09-09T07:36:02;5.78;;;3.35;;
1701;SDS011;848;48.354;10.064;2022-09-09T07:38:30;7.32;;;2.83;;
1701;SDS011;848;48.354;10.064;2022-09-09T07:41:02;7.20;;;2.90;;
1701;SDS011;848;48.354;10.064;2022-09-09T07:43:32;7.60;;;2.75;;
1701;SDS011;848;48.354;10.064;2022-09-09T07:45:59;6.78;;;3.33;;
1701;SDS011;848;48.354;10.064;2022-09-09T07:48:27;6.05;;;3.50;;
1701;SDS011;848;48.354;10.064;2022-09-09T07:51:02;3.88;;;2.85;;
1701;SDS011;848;48.354;10.064;2022-09-09T07:53:33;8.27;;;2.78;;
1701;SDS011;848;48.354;10.064;2022-09-09T07:56:05;5.18;;;2.80;;
1701;SDS011;848;48.354;10.064;2022-09-09T07:58:36;8.52;;;3.20;;
1701;SDS011;848;48.354;10.064;2022-09-09T08:01:06;5.82;;;3.40;;
1701;SDS011;848;48.354;10.064;2022-09-09T08:03:34;5.78;;;2.90;;
1701;SDS011;848;48.354;10.064;2022-09-09T08:06:02;8.25;;;3.28;;
1701;SDS011;848;48.354;10.064;2022-09-09T08:08:31;3.53;;;2.78;;
1701;SDS011;848;48.354;10.064;2022-09-09T08:11:01;9.27;;;3.92;;
1701;SDS011;848;48.354;10.064;2022-09-09T08:13:29;6.55;;;2.50;;
1701;SDS011;848;48.354;10.064;2022-09-09T08:16:04;6.43;;;3.83;;
1701;SDS011;848;48.354;10.064;2022-09-09T08:18:32;5.57;;;2.88;;
1701;SDS011;848;48.354;10.064;2022-09-09T08:21:05;6.05;;;3.22;;
1701;SDS011;848;48.354;10.064;2022-09-09T08:23:33;6.95;;;3.22;;
1701;SDS011;848;48.354;10.064;2022-09-09T08:26:03;5.10;;;2.95;;
1701;SDS011;848;48.354;10.064;2022-09-09T08:28:36;3.72;;;2.60;;
1701;SDS011;848;48.354;10.064;2022-09-09T08:31:08;4.38;;;2.25;;
1701;SDS011;848;48.354;10.064;2022-09-09T08:33:37;3.15;;;2.42;;
1701;SDS011;848;48.354;10.064;2022-09-09T08:36:04;6.68;;;2.67;;
1701;SDS011;848;48.354;10.064;2022-09-09T08:38:34;4.78;;;2.38;;
1701;SDS011;848;48.354;10.064;2022-09-09T08:41:05;6.32;;;3.47;;
1701;SDS011;848;48.354;10.064;2022-09-09T08:43:51;6.10;;;2.55;;
1701;SDS011;848;48.354;10.064;2022-09-09T08:46:31;5.53;;;2.85;;
1701;SDS011;848;48.354;10.064;2022-09-09T08:49:06;3.80;;;2.25;;
1701;SDS011;848;48.354;10.064;2022-09-09T08:51:44;3.47;;;2.15;;
1701;SDS011;848;48.354;10.064;2022-09-09T08:54:12;3.85;;;2.20;;
1701;SDS011;848;48.354;10.064;2022-09-09T08:56:39;4.95;;;2.17;;
1701;SDS011;848;48.354;10.064;2022-09-09T08:59:07;4.05;;;2.05;;
1701;SDS011;848;48.354;10.064;2022-09-09T09:01:45;4.40;;;2.00;;
1701;SDS011;848;48.354;10.064;2022-09-09T09:07:19;3.47;;;2.20;;
1701;SDS011;848;48.354;10.064;2022-09-09T09:09:56;3.78;;;2.10;;
1701;SDS011;848;48.354;10.064;2022-09-09T09:12:31;2.97;;;1.70;;
1701;SDS011;848;48.354;10.064;2022-09-09T09:15:05;3.15;;;2.10;;
1701;SDS011;848;48.354;10.064;2022-09-09T09:17:44;4.50;;;1.98;;
1701;SDS011;848;48.354;10.064;2022-09-09T09:20:12;2.72;;;1.75;;
1701;SDS011;848;48.354;10.064;2022-09-09T09:22:43;6.10;;;2.03;;
1701;SDS011;848;48.354;10.064;2022-09-09T09:28:13;5.53;;;1.98;;
1701;SDS011;848;48.354;10.064;2022-09-09T09:30:44;5.35;;;2.03;;
1701;SDS011;848;48.354;10.064;2022-09-09T09:33:20;4.80;;;1.75;;
1701;SDS011;848;48.354;10.064;2022-09-09T09:35:50;3.33;;;1.65;;
1701;SDS011;848;48.354;10.064;2022-09-09T09:38:19;2.28;;;1.58;;
1701;SDS011;848;48.354;10.064;2022-09-09T09:40:51;2.85;;;1.70;;
1701;SDS011;848;48.354;10.064;2022-09-09T09:43:20;5.25;;;1.27;;
1701;SDS011;848;48.354;10.064;2022-09-09T09:45:51;3.15;;;1.50;;
1701;SDS011;848;48.354;10.064;2022-09-09T09:48:19;3.72;;;1.48;;
1701;SDS011;848;48.354;10.064;2022-09-09T09:50:46;4.38;;;1.60;;
1701;SDS011;848;48.354;10.064;2022-09-09T09:53:17;7.43;;;1.70;;
1701;SDS011;848;48.354;10.064;2022-09-09T09:55:50;7.45;;;1.90;;
1701;SDS011;848;48.354;10.064;2022-09-09T09:58:21;7.32;;;1.55;;
1701;SDS011;848;48.354;10.064;2022-09-09T10:00:48;6.00;;;2.42;;
1701;SDS011;848;48.354;10.064;2022-09-09T10:03:25;4.22;;;2.00;;
1701;SDS011;848;48.354;10.064;2022-09-09T10:05:54;2.58;;;1.58;;
1701;SDS011;848;48.354;10.064;2022-09-09T10:08:22;2.65;;;1.75;;
1701;SDS011;848;48.354;10.064;2022-09-09T10:10:56;7.05;;;2.33;;
1701;SDS011;848;48.354;10.064;2022-09-09T10:13:33;7.50;;;1.83;;
1701;SDS011;848;48.354;10.064;2022-09-09T10:16:09;5.15;;;1.45;;
1701;SDS011;848;48.354;10.064;2022-09-09T10:18:52;6.43;;;1.70;;
1701;SDS011;848;48.354;10.064;2022-09-09T10:21:29;5.47;;;1.60;;
1701;SDS011;848;48.354;10.064;2022-09-09T10:24:07;2.55;;;1.27;;
1701;SDS011;848;48.354;10.064;2022-09-09T10:26:50;2.97;;;1.35;;
1701;SDS011;848;48.354;10.064;2022-09-09T10:32:13;6.50;;;2.22;;
1701;SDS011;848;48.354;10.064;2022-09-09T10:34:58;4.50;;;1.50;;
1701;SDS011;848;48.354;10.064;2022-09-09T10:37:34;3.75;;;1.40;;
1701;SDS011;848;48.354;10.064;2022-09-09T10:40:20;2.70;;;1.38;;
1701;SDS011;848;48.354;10.064;2022-09-09T10:42:56;4.15;;;1.33;;
1701;SDS011;848;48.354;10.064;2022-09-09T10:45:46;4.55;;;1.30;;
1701;SDS011;848;48.354;10.064;2022-09-09T10:48:27;2.63;;;1.30;;
1701;SDS011;848;48.354;10.064;2022-09-09T10:51:05;2.20;;;1.13;;
1701;SDS011;848;48.354;10.064;2022-09-09T10:53:46;3.45;;;1.10;;
1701;SDS011;848;48.354;10.064;2022-09-09T10:56:20;4.07;;;1.05;;
1701;SDS011;848;48.354;10.064;2022-09-09T10:58:51;2.65;;;1.17;;
1701;SDS011;848;48.354;10.064;2022-09-09T11:01:22;2.30;;;1.20;;
1701;SDS011;848;48.354;10.064;2022-09-09T11:03:53;2.55;;;1.00;;
1701;SDS011;848;48.354;10.064;2022-09-09T11:06:25;4.25;;;1.15;;
1701;SDS011;848;48.354;10.064;2022-09-09T11:08:57;7.18;;;1.70;;
1701;SDS011;848;48.354;10.064;2022-09-09T11:11:29;2.40;;;1.05;;
1701;SDS011;848;48.354;10.064;2022-09-09T11:13:59;4.63;;;1.10;;
1701;SDS011;848;48.354;10.064;2022-09-09T11:16:36;3.30;;;1.13;;
1701;SDS011;848;48.354;10.064;2022-09-09T11:19:11;5.20;;;1.02;;
1701;SDS011;848;48.354;10.064;2022-09-09T11:21:46;2.83;;;1.10;;
1701;SDS011;848;48.354;10.064;2022-09-09T11:24:16;2.67;;;1.20;;
1701;SDS011;848;48.354;10.064;2022-09-09T11:26:49;3.47;;;0.85;;
1701;SDS011;848;48.354;10.064;2022-09-09T11:29:23;2.53;;;1.00;;
1701;SDS011;848;48.354;10.064;2022-09-09T11:32:10;2.05;;;0.90;;
1701;SDS011;848;48.354;10.064;2022-09-09T11:34:50;3.55;;;0.90;;
1701;SDS011;848;48.354;10.064;2022-09-09T11:37:28;5.22;;;1.10;;
1701;SDS011;848;48.354;10.064;2022-09-09T11:40:17;1.98;;;0.75;;
1701;SDS011;848;48.354;10.064;2022-09-09T11:42:48;1.40;;;0.77;;
1701;SDS011;848;48.354;10.064;2022-09-09T11:45:26;3.00;;;1.35;;
1701;SDS011;848;48.354;10.064;2022-09-09T11:47:56;4.63;;;1.05;;
1701;SDS011;848;48.354;10.064;2022-09-09T11:50:30;4.85;;;1.30;;
1701;SDS011;848;48.354;10.064;2022-09-09T11:53:16;2.55;;;1.08;;
1701;SDS011;848;48.354;10.064;2022-09-09T11:55:59;3.47;;;1.05;;
1701;SDS011;848;48.354;10.064;2022-09-09T11:58:28;5.68;;;1.58;;
1701;SDS011;848;48.354;10.064;2022-09-09T12:00:58;5.15;;;1.20;;
1701;SDS011;848;48.354;10.064;2022-09-09T12:03:32;5.22;;;0.95;;
1701;SDS011;848;48.354;10.064;2022-09-09T12:06:11;6.22;;;1.38;;
1701;SDS011;848;48.354;10.064;2022-09-09T12:08:44;2.13;;;0.70;;
1701;SDS011;848;48.354;10.064;2022-09-09T12:11:23;2.90;;;0.80;;
1701;SDS011;848;48.354;10.064;2022-09-09T12:13:52;5.30;;;0.90;;
1701;SDS011;848;48.354;10.064;2022-09-09T12:16:30;3.80;;;0.85;;
1701;SDS011;848;48.354;10.064;2022-09-09T12:19:06;2.58;;;0.95;;
1701;SDS011;848;48.354;10.064;2022-09-09T12:21:40;2.45;;;0.73;;
1701;SDS011;848;48.354;10.064;2022-09-09T12:24:17;2.60;;;0.80;;
1701;SDS011;848;48.354;10.064;2022-09-09T12:26:51;4.47;;;0.60;;
1701;SDS011;848;48.354;10.064;2022-09-09T12:29:25;5.63;;;0.80;;
1701;SDS011;848;48.354;10.064;2022-09-09T12:31:56;2.58;;;0.90;;
1701;SDS011;848;48.354;10.064;2022-09-09T12:34:32;3.13;;;0.85;;
1701;SDS011;848;48.354;10.064;2022-09-09T12:37:05;2.17;;;0.80;;
1701;SDS011;848;48.354;10.064;2022-09-09T12:39:42;1.73;;;0.90;;
1701;SDS011;848;48.354;10.064;2022-09-09T12:42:18;3.78;;;0.77;;
1701;SDS011;848;48.354;10.064;2022-09-09T12:44:53;2.83;;;0.80;;
1701;SDS011;848;48.354;10.064;2022-09-09T12:47:24;2.47;;;0.90;;
1701;SDS011;848;48.354;10.064;2022-09-09T12:49:57;2.53;;;1.20;;
1701;SDS011;848;48.354;10.064;2022-09-09T12:52:26;2.65;;;0.77;;
1701;SDS011;848;48.354;10.064;2022-09-09T12:54:58;1.55;;;0.63;;
1701;SDS011;848;48.354;10.064;2022-09-09T12:57:29;2.30;;;0.90;;
1701;SDS011;848;48.354;10.064;2022-09-09T13:00:04;2.20;;;0.82;;
1701;SDS011;848;48.354;10.064;2022-09-09T13:02:36;1.45;;;0.77;;
1701;SDS011;848;48.354;10.064;2022-09-09T13:05:13;2.13;;;0.93;;
1701;SDS011;848;48.354;10.064;2022-09-09T13:07:42;5.03;;;1.90;;
1701;SDS011;848;48.354;10.064;2022-09-09T13:10:12;2.60;;;1.70;;
1701;SDS011;848;48.354;10.064;2022-09-09T13:12:40;2.70;;;1.15;;
1701;SDS011;848;48.354;10.064;2022-09-09T13:15:11;4.10;;;1.00;;
1701;SDS011;848;48.354;10.064;2022-09-09T13:17:49;4.20;;;1.05;;
1701;SDS011;848;48.354;10.064;2022-09-09T13:20:18;2.55;;;1.58;;
1701;SDS011;848;48.354;10.064;2022-09-09T13:22:47;2.70;;;1.73;;
1701;SDS011;848;48.354;10.064;2022-09-09T13:25:19;2.85;;;1.40;;
1701;SDS011;848;48.354;10.064;2022-09-09T13:30:54;1.98;;;0.80;;
1701;SDS011;848;48.354;10.064;2022-09-09T13:33:24;2.75;;;0.90;;
1701;SDS011;848;48.354;10.064;2022-09-09T13:35:56;2.65;;;0.90;;
1701;SDS011;848;48.354;10.064;2022-09-09T13:38:25;2.88;;;0.90;;
1701;SDS011;848;48.354;10.064;2022-09-09T13:40:58;4.90;;;0.80;;
1701;SDS011;848;48.354;10.064;2022-09-09T13:43:28;2.78;;;0.77;;
1701;SDS011;848;48.354;10.064;2022-09-09T13:45:57;2.90;;;0.80;;
1701;SDS011;848;48.354;10.064;2022-09-09T13:48:26;1.63;;;0.90;;
1701;SDS011;848;48.354;10.064;2022-09-09T13:50:55;3.33;;;1.00;;
1701;SDS011;848;48.354;10.064;2022-09-09T13:53:23;3.15;;;1.02;;
1701;SDS011;848;48.354;10.064;2022-09-09T13:55:50;1.83;;;0.82;;
1701;SDS011;848;48.354;10.064;2022-09-09T13:58:19;1.73;;;0.93;;
1701;SDS011;848;48.354;10.064;2022-09-09T14:00:48;3.60;;;1.23;;
1701;SDS011;848;48.354;10.064;2022-09-09T14:05:26;3.70;;;1.02;;
1701;SDS011;848;48.354;10.064;2022-09-09T14:07:53;3.05;;;1.00;;
1701;SDS011;848;48.354;10.064;2022-09-09T14:10:23;2.25;;;0.70;;
1701;SDS011;848;48.354;10.064;2022-09-09T14:12:50;3.35;;;1.00;;
1701;SDS011;848;48.354;10.064;2022-09-09T14:15:18;1.20;;;0.70;;
1701;SDS011;848;48.354;10.064;2022-09-09T14:17:45;3.55;;;1.20;;
1701;SDS011;848;48.354;10.064;2022-09-09T14:20:13;2.45;;;0.82;;
1701;SDS011;848;48.354;10.064;2022-09-09T14:22:44;3.15;;;1.00;;
1701;SDS011;848;48.354;10.064;2022-09-09T14:25:10;2.63;;;1.02;;
1701;SDS011;848;48.354;10.064;2022-09-09T14:27:38;2.20;;;0.80;;
1701;SDS011;848;48.354;10.064;2022-09-09T14:30:05;2.25;;;1.00;;
1701;SDS011;848;48.354;10.064;2022-09-09T14:32:33;2.75;;;0.90;;
1701;SDS011;848;48.354;10.064;2022-09-09T14:35:00;6.55;;;1.85;;
1701;SDS011;848;48.354;10.064;2022-09-09T14:37:27;3.10;;;0.63;;
1701;SDS011;848;48.354;10.064;2022-09-09T14:39:58;2.40;;;0.60;;
1701;SDS011;848;48.354;10.064;2022-09-09T14:42:24;2.75;;;0.88;;
1701;SDS011;848;48.354;10.064;2022-09-09T14:44:51;1.67;;;0.75;;
1701;SDS011;848;48.354;10.064;2022-09-09T14:47:18;3.20;;;0.88;;
1701;SDS011;848;48.354;10.064;2022-09-09T14:49:45;1.60;;;0.80;;
1701;SDS011;848;48.354;10.064;2022-09-09T14:52:14;4.03;;;1.02;;
1701;SDS011;848;48.354;10.064;2022-09-09T14:54:45;2.20;;;1.23;;
1701;SDS011;848;48.354;10.064;2022-09-09T14:57:16;1.50;;;0.90;;
1701;SDS011;848;48.354;10.064;2022-09-09T14:59:43;1.42;;;0.70;;
1701;SDS011;848;48.354;10.064;2022-09-09T15:02:10;2.08;;;1.00;;
1701;SDS011;848;48.354;10.064;2022-09-09T15:04:38;2.20;;;1.05;;
1701;SDS011;848;48.354;10.064;2022-09-09T15:07:05;2.90;;;1.23;;
1701;SDS011;848;48.354;10.064;2022-09-09T15:09:32;5.43;;;1.45;;
1701;SDS011;848;48.354;10.064;2022-09-09T15:12:00;2.38;;;1.00;;
1701;SDS011;848;48.354;10.064;2022-09-09T15:14:29;4.50;;;1.10;;
1701;SDS011;848;48.354;10.064;2022-09-09T15:16:56;4.18;;;1.90;;
1701;SDS011;848;48.354;10.064;2022-09-09T15:19:23;2.47;;;1.00;;
1701;SDS011;848;48.354;10.064;2022-09-09T15:21:50;2.92;;;1.00;;
1701;SDS011;848;48.354;10.064;2022-09-09T15:24:17;1.38;;;0.70;;
1701;SDS011;848;48.354;10.064;2022-09-09T15:26:44;2.65;;;0.80;;
1701;SDS011;848;48.354;10.064;2022-09-09T15:29:11;2.90;;;0.80;;
1701;SDS011;848;48.354;10.064;2022-09-09T15:31:40;1.90;;;0.80;;
1701;SDS011;848;48.354;10.064;2022-09-09T15:34:07;4.10;;;0.68;;
1701;SDS011;848;48.354;10.064;2022-09-09T15:36:35;2.85;;;0.90;;
1701;SDS011;848;48.354;10.064;2022-09-09T15:39:03;5.80;;;2.40;;
1701;SDS011;848;48.354;10.064;2022-09-09T15:41:32;5.60;;;2.60;;
1701;SDS011;848;48.354;10.064;2022-09-09T15:44:00;2.40;;;1.15;;
1701;SDS011;848;48.354;10.064;2022-09-09T15:46:28;3.60;;;1.35;;
1701;SDS011;848;48.354;10.064;2022-09-09T15:49:02;3.95;;;1.30;;
1701;SDS011;848;48.354;10.064;2022-09-09T15:51:31;1.92;;;1.13;;
1701;SDS011;848;48.354;10.064;2022-09-09T15:55:25;2.08;;;0.85;;
1701;SDS011;848;48.354;10.064;2022-09-09T15:57:52;2.97;;;0.85;;
1701;SDS011;848;48.354;10.064;2022-09-09T16:00:20;3.15;;;0.82;;
1701;SDS011;848;48.354;10.064;2022-09-09T16:02:50;2.35;;;0.85;;